Time;durP1;ratioP1;P1;durP2;ratioP2;P2;SDS_P1;SDS_P2;PMS_P1;PMS_P2;Temp;Humidity;BMP_temperature;BMP_pressure;BME280_temperature;BME280_humidity;BME280_pressure;Samples;Min_cycle;Max_cycle;Signal;HPM_P1;HPM_P2
2021/06/07 00:01:50;;;;;;;12.80;9.90;;;17.20;91.10;;;;;;5072156;28;20457;-67
2021/06/07 00:04:16;;;;;;;12.10;9.10;;;17.20;91.20;;;;;;5050430;28;20033;-72
2021/06/07 00:06:42;;;;;;;11.68;9.43;;;17.20;91.10;;;;;;5051486;28;20078;-66
2021/06/07 00:09:11;;;;;;;12.52;9.57;;;17.20;91.20;;;;;;5045067;28;20082;-67
2021/06/07 00:11:41;;;;;;;11.30;9.18;;;17.20;91.20;;;;;;5046459;28;20102;-67
2021/06/07 00:14:07;;;;;;;12.55;9.77;;;17.20;91.20;;;;;;5043868;28;20028;-72
2021/06/07 00:16:33;;;;;;;12.70;10.20;;;17.20;91.20;;;;;;5036186;28;20083;-71
2021/06/07 00:19:00;;;;;;;12.82;9.10;;;17.20;91.20;;;;;;5032196;28;20559;-72
2021/06/07 00:21:29;;;;;;;13.50;9.75;;;17.20;91.20;;;;;;5042658;28;20390;-67
2021/06/07 00:23:57;;;;;;;10.80;9.65;;;17.20;91.20;;;;;;5045433;28;20036;-70
2021/06/07 00:26:23;;;;;;;11.15;9.30;;;17.20;91.20;;;;;;5036003;28;20138;-73
2021/06/07 00:28:49;;;;;;;11.57;9.05;;;17.10;91.20;;;;;;5026441;28;20064;-73
2021/06/07 00:31:15;;;;;;;13.70;10.00;;;17.10;91.30;;;;;;5040986;28;20030;-73
2021/06/07 00:33:41;;;;;;;11.38;9.23;;;17.10;91.30;;;;;;5045912;28;20146;-67
2021/06/07 00:36:09;;;;;;;13.10;10.27;;;17.20;91.30;;;;;;5050071;28;20453;-67
2021/06/07 00:38:36;;;;;;;12.52;9.52;;;17.20;91.30;;;;;;5038900;28;20018;-66
2021/06/07 00:41:04;;;;;;;12.15;9.38;;;17.20;91.30;;;;;;5040660;28;20131;-72
2021/06/07 00:43:30;;;;;;;10.85;9.32;;;17.20;91.30;;;;;;5049789;28;20069;-67
2021/06/07 00:45:56;;;;;;;13.38;10.57;;;17.10;91.30;;;;;;5042229;28;20109;-67
2021/06/07 00:48:22;;;;;;;13.85;10.05;;;17.20;91.30;;;;;;5035812;28;20021;-68
2021/06/07 00:50:52;;;;;;;12.88;9.77;;;17.20;91.40;;;;;;5042725;28;20408;-72
2021/06/07 00:53:19;;;;;;;14.43;10.07;;;17.20;91.30;;;;;;5043669;28;20029;-72
2021/06/07 00:55:50;;;;;;;12.18;10.23;;;17.20;91.30;;;;;;5013559;28;20425;-67
2021/06/07 00:58:21;;;;;;;12.20;9.73;;;17.20;91.40;;;;;;5031230;28;20040;-68
2021/06/07 01:00:47;;;;;;;12.07;9.45;;;17.20;91.40;;;;;;5031453;28;20025;-68
2021/06/07 01:03:14;;;;;;;14.98;10.20;;;17.20;91.40;;;;;;5047828;28;20096;-68
2021/06/07 01:05:40;;;;;;;14.25;9.25;;;17.20;91.40;;;;;;5030513;28;20215;-71
2021/06/07 01:08:07;;;;;;;14.00;10.27;;;17.20;91.40;;;;;;5044421;28;20108;-72
2021/06/07 01:10:35;;;;;;;14.30;10.77;;;17.20;91.40;;;;;;5034272;28;20126;-73
2021/06/07 01:13:01;;;;;;;14.55;10.73;;;17.20;91.40;;;;;;5036868;28;20027;-71
2021/06/07 01:15:27;;;;;;;13.77;11.63;;;17.20;91.40;;;;;;5049568;28;20021;-70
2021/06/07 01:17:54;;;;;;;13.60;9.98;;;17.20;91.40;;;;;;5050765;28;20025;-68
2021/06/07 01:20:22;;;;;;;15.68;10.48;;;17.20;91.40;;;;;;5046669;28;20021;-67
2021/06/07 01:22:50;;;;;;;16.73;11.27;;;17.20;91.50;;;;;;5030475;28;20021;-67
2021/06/07 01:25:23;;;;;;;13.95;11.23;;;17.20;91.40;;;;;;5029877;28;20021;-67
2021/06/07 01:27:51;;;;;;;14.23;11.00;;;17.20;91.50;;;;;;5031786;28;20032;-70
2021/06/07 01:30:19;;;;;;;14.50;11.15;;;17.20;91.50;;;;;;5039652;28;20052;-67
2021/06/07 01:32:45;;;;;;;14.40;12.02;;;17.20;91.50;;;;;;5049885;28;20025;-69
2021/06/07 01:35:12;;;;;;;15.85;11.70;;;17.20;91.50;;;;;;5032907;28;20040;-67
2021/06/07 01:37:38;;;;;;;18.17;12.45;;;17.20;91.70;;;;;;5030435;28;20025;-67
2021/06/07 01:40:18;;;;;;;16.00;12.20;;;17.20;91.50;;;;;;5031168;28;20376;-67
2021/06/07 01:42:44;;;;;;;16.85;12.55;;;17.10;91.50;;;;;;5032539;28;20112;-73
2021/06/07 01:45:12;;;;;;;16.70;12.40;;;17.10;91.50;;;;;;5053678;28;20025;-67
2021/06/07 01:47:38;;;;;;;16.80;12.80;;;17.10;91.50;;;;;;5038093;28;20030;-71
2021/06/07 01:50:06;;;;;;;15.63;12.30;;;17.10;91.50;;;;;;5045521;28;20121;-68
2021/06/07 01:52:33;;;;;;;22.45;14.02;;;17.10;91.60;;;;;;5045862;28;20079;-70
2021/06/07 01:54:59;;;;;;;23.77;14.48;;;17.10;91.50;;;;;;5031416;28;20021;-68
2021/06/07 01:57:24;;;;;;;22.52;13.25;;;17.10;91.50;;;;;;5047198;28;20079;-67
2021/06/07 01:59:50;;;;;;;27.42;14.65;;;17.10;91.60;;;;;;5039359;28;20032;-69
2021/06/07 02:02:16;;;;;;;25.85;14.63;;;17.10;91.60;;;;;;5048343;28;20021;-68
2021/06/07 02:04:41;;;;;;;23.48;14.15;;;17.00;91.60;;;;;;5049128;28;20708;-67
2021/06/07 02:07:07;;;;;;;24.13;15.77;;;17.00;91.60;;;;;;5050065;28;20035;-68
2021/06/07 02:09:37;;;;;;;23.40;15.40;;;17.00;91.60;;;;;;5040950;28;20033;-69
2021/06/07 02:12:03;;;;;;;21.42;14.38;;;17.00;91.70;;;;;;5030212;28;20052;-67
2021/06/07 02:14:28;;;;;;;26.02;15.45;;;16.90;91.70;;;;;;5030478;28;20105;-68
2021/06/07 02:16:54;;;;;;;27.50;16.25;;;17.00;91.80;;;;;;5034553;28;20552;-67
2021/06/07 02:19:20;;;;;;;26.20;15.52;;;17.00;91.80;;;;;;5042788;28;20110;-67
2021/06/07 02:21:45;;;;;;;23.88;15.55;;;17.00;91.80;;;;;;5047959;28;20043;-67
2021/06/07 02:24:11;;;;;;;26.88;16.13;;;17.00;91.80;;;;;;5035639;28;20026;-69
2021/06/07 02:26:37;;;;;;;23.55;16.05;;;17.00;91.80;;;;;;5030974;28;20021;-72
2021/06/07 02:29:06;;;;;;;24.17;15.43;;;17.00;91.80;;;;;;5023203;28;20052;-68
2021/06/07 02:31:32;;;;;;;26.48;15.57;;;17.00;91.80;;;;;;5031174;28;20022;-68
2021/06/07 02:33:59;;;;;;;24.58;16.00;;;17.00;91.80;;;;;;5049407;28;20120;-67
2021/06/07 02:36:28;;;;;;;28.30;15.63;;;17.00;91.90;;;;;;5043690;28;20243;-66
2021/06/07 02:38:54;;;;;;;34.97;17.17;;;17.00;91.90;;;;;;5031780;28;20021;-67
2021/06/07 02:41:20;;;;;;;28.75;16.08;;;17.00;91.90;;;;;;5050015;28;20151;-68
2021/06/07 02:43:47;;;;;;;24.80;16.80;;;17.00;91.90;;;;;;5049471;28;20068;-68
2021/06/07 02:46:13;;;;;;;28.70;16.30;;;17.00;91.90;;;;;;5038003;28;20040;-67
2021/06/07 02:48:38;;;;;;;40.38;17.48;;;17.00;91.90;;;;;;5046414;28;20029;-67
2021/06/07 02:51:05;;;;;;;25.40;17.08;;;17.00;92.00;;;;;;5035186;28;20166;-67
2021/06/07 02:53:31;;;;;;;25.02;17.23;;;16.90;92.00;;;;;;5041141;28;20041;-67
2021/06/07 02:55:57;;;;;;;28.20;17.40;;;16.90;92.00;;;;;;5044616;28;20036;-68
2021/06/07 02:58:23;;;;;;;28.75;17.42;;;16.90;92.00;;;;;;5049766;28;20453;-67
2021/06/07 03:00:55;;;;;;;28.58;17.27;;;17.00;92.00;;;;;;5049526;28;20047;-67
2021/06/07 03:03:21;;;;;;;37.07;17.80;;;16.90;92.00;;;;;;5039411;28;20025;-67
2021/06/07 03:05:48;;;;;;;26.15;16.95;;;16.90;92.00;;;;;;5047473;28;20283;-67
2021/06/07 03:08:16;;;;;;;28.63;17.80;;;16.90;92.00;;;;;;5052938;28;20037;-73
2021/06/07 03:10:46;;;;;;;27.13;18.35;;;16.90;92.10;;;;;;5039444;28;20482;-68
2021/06/07 03:13:11;;;;;;;35.90;17.85;;;17.00;92.20;;;;;;5044343;28;20389;-67
2021/06/07 03:15:37;;;;;;;28.85;16.73;;;16.90;92.10;;;;;;5052595;28;20017;-67
2021/06/07 03:18:04;;;;;;;21.95;15.43;;;17.00;92.20;;;;;;5052585;28;20431;-68
2021/06/07 03:20:31;;;;;;;17.58;13.07;;;17.00;92.20;;;;;;5053218;28;20025;-68
2021/06/07 03:22:59;;;;;;;14.13;11.30;;;17.00;92.20;;;;;;5035517;28;20385;-69
2021/06/07 03:25:26;;;;;;;14.05;10.55;;;17.00;92.20;;;;;;5035710;28;20128;-67
2021/06/07 03:27:52;;;;;;;14.07;10.43;;;17.00;92.20;;;;;;5033092;28;20045;-68
2021/06/07 03:30:19;;;;;;;14.10;10.40;;;17.00;92.30;;;;;;5046595;28;20055;-67
2021/06/07 03:32:44;;;;;;;12.88;9.65;;;16.90;92.30;;;;;;5053193;28;20021;-67
2021/06/07 03:35:13;;;;;;;13.57;9.77;;;17.00;92.30;;;;;;5055492;28;20487;-66
2021/06/07 03:37:39;;;;;;;13.55;9.18;;;17.00;92.30;;;;;;5044855;28;20036;-67
2021/06/07 03:40:15;;;;;;;12.57;9.30;;;17.00;92.30;;;;;;5032990;28;20460;-69
2021/06/07 03:42:40;;;;;;;15.30;10.40;;;17.00;92.30;;;;;;5045236;28;20036;-67
2021/06/07 03:45:07;;;;;;;17.38;11.48;;;17.00;92.30;;;;;;5049550;28;20017;-67
2021/06/07 03:47:33;;;;;;;19.08;12.02;;;17.00;92.30;;;;;;5034843;28;20028;-72
2021/06/07 03:49:59;;;;;;;28.52;14.65;;;17.00;92.30;;;;;;5052729;28;20081;-67
2021/06/07 03:52:25;;;;;;;22.98;15.00;;;16.90;92.30;;;;;;5052797;28;20438;-67
2021/06/07 03:57:18;;;;;;;24.23;14.80;;;16.90;92.30;;;;;;5009747;28;20084;-70
2021/06/07 03:59:44;;;;;;;19.77;14.05;;;16.90;92.20;;;;;;5009152;28;20033;-70
2021/06/07 04:02:10;;;;;;;23.45;15.73;;;16.90;92.20;;;;;;5011447;28;20036;-69
2021/06/07 04:04:37;;;;;;;20.40;15.13;;;16.80;92.30;;;;;;5009055;28;20022;-69
2021/06/07 04:07:03;;;;;;;25.42;15.93;;;16.90;92.40;;;;;;5011179;28;20056;-69
2021/06/07 04:09:28;;;;;;;25.70;16.27;;;16.80;92.30;;;;;;5011500;28;20124;-69
2021/06/07 04:11:54;;;;;;;25.80;16.02;;;16.80;92.40;;;;;;5006256;28;20057;-70
2021/06/07 04:14:20;;;;;;;23.92;15.48;;;16.80;92.30;;;;;;5009472;28;20025;-69
2021/06/07 04:16:46;;;;;;;24.25;15.57;;;16.90;92.40;;;;;;5011389;28;20034;-70
2021/06/07 04:19:12;;;;;;;24.08;15.57;;;16.90;92.50;;;;;;5011649;28;20571;-69
2021/06/07 04:21:38;;;;;;;30.75;16.95;;;16.90;92.40;;;;;;5012092;28;20148;-69
2021/06/07 04:24:05;;;;;;;25.17;16.33;;;16.90;92.40;;;;;;5009960;28;20057;-69
2021/06/07 04:26:31;;;;;;;24.75;17.08;;;16.90;92.40;;;;;;5002176;28;20160;-69
2021/06/07 04:28:57;;;;;;;26.35;17.90;;;16.90;92.40;;;;;;5011120;28;20052;-69
2021/06/07 04:31:24;;;;;;;32.90;18.90;;;16.90;92.40;;;;;;5017879;28;20033;-69
2021/06/07 04:33:50;;;;;;;29.83;18.83;;;16.90;92.40;;;;;;5010000;28;20030;-69
2021/06/07 04:36:15;;;;;;;29.00;18.95;;;16.90;92.40;;;;;;5010268;28;20045;-69
2021/06/07 04:38:41;;;;;;;29.00;17.40;;;16.90;92.50;;;;;;5009185;28;20431;-69
2021/06/07 04:41:07;;;;;;;29.95;19.75;;;16.90;92.50;;;;;;5009395;28;20041;-69
2021/06/07 04:43:32;;;;;;;30.85;19.25;;;16.90;92.40;;;;;;5011766;28;20029;-69
2021/06/07 04:45:58;;;;;;;32.25;19.42;;;16.90;92.50;;;;;;5010270;28;20037;-69
2021/06/07 04:48:23;;;;;;;31.05;19.23;;;16.90;92.50;;;;;;5010582;28;20026;-69
2021/06/07 04:50:51;;;;;;;30.02;19.75;;;16.90;92.50;;;;;;5005876;28;20026;-69
2021/06/07 04:53:17;;;;;;;30.15;19.38;;;16.90;92.50;;;;;;5000861;28;20482;-69
2021/06/07 04:55:45;;;;;;;30.55;20.88;;;16.90;92.50;;;;;;5004895;28;156696;-69
2021/06/07 04:58:25;;;;;;;32.35;20.27;;;17.00;92.50;;;;;;5002090;28;20045;-69
2021/06/07 05:00:56;;;;;;;33.47;19.63;;;17.00;92.50;;;;;;5010454;28;20018;-69
2021/06/07 05:03:27;;;;;;;30.58;20.15;;;17.00;92.50;;;;;;5012335;28;20054;-69
2021/06/07 05:05:54;;;;;;;31.90;19.83;;;17.00;92.50;;;;;;5010448;28;20026;-69
2021/06/07 05:08:20;;;;;;;32.83;20.27;;;17.00;92.50;;;;;;5011914;28;20029;-69
2021/06/07 05:10:46;;;;;;;29.67;19.23;;;17.00;92.50;;;;;;5010647;28;20067;-69
2021/06/07 05:13:11;;;;;;;34.97;22.05;;;17.00;92.50;;;;;;5012198;28;20026;-69
2021/06/07 05:15:37;;;;;;;31.92;20.45;;;17.10;92.50;;;;;;5007035;28;20057;-69
2021/06/07 05:18:03;;;;;;;29.85;20.38;;;17.10;92.60;;;;;;5000315;28;20406;-69
2021/06/07 05:20:29;;;;;;;32.80;20.70;;;17.10;92.50;;;;;;5011819;28;20057;-69
2021/06/07 05:22:57;;;;;;;32.17;21.27;;;17.10;92.50;;;;;;5012006;28;20117;-69
2021/06/07 05:25:24;;;;;;;31.95;20.60;;;17.10;92.60;;;;;;5007587;28;20132;-69
2021/06/07 05:27:51;;;;;;;30.63;20.55;;;17.10;92.50;;;;;;5010989;28;20030;-69
2021/06/07 05:30:18;;;;;;;29.73;20.25;;;17.20;92.50;;;;;;5008777;28;20075;-69
2021/06/07 05:32:44;;;;;;;30.63;19.77;;;17.20;92.50;;;;;;5010831;28;20437;-69
2021/06/07 05:35:12;;;;;;;37.45;21.88;;;17.30;92.60;;;;;;5010463;28;20049;-69
2021/06/07 05:37:38;;;;;;;32.33;21.33;;;17.30;92.60;;;;;;5011019;28;20048;-69
2021/06/07 05:40:07;;;;;;;33.72;21.50;;;17.30;92.60;;;;;;5011065;28;20573;-68
2021/06/07 05:42:33;;;;;;;33.78;21.60;;;17.30;92.60;;;;;;5005922;28;20026;-68
2021/06/07 05:44:58;;;;;;;34.25;23.17;;;17.30;92.60;;;;;;5011224;28;20053;-70
2021/06/07 05:47:24;;;;;;;33.15;20.85;;;17.30;92.50;;;;;;5006097;28;20358;-69
2021/06/07 05:49:50;;;;;;;35.58;22.05;;;17.40;92.50;;;;;;5011751;28;20046;-69
2021/06/07 05:52:16;;;;;;;30.42;20.42;;;17.40;92.50;;;;;;5009843;28;20034;-69
2021/06/07 05:54:42;;;;;;;31.20;19.88;;;17.40;92.50;;;;;;4999021;28;20038;-69
2021/06/07 05:57:09;;;;;;;30.38;20.20;;;17.50;92.60;;;;;;5003893;28;20088;-69
2021/06/07 05:59:36;;;;;;;32.53;21.90;;;17.50;92.60;;;;;;5010544;28;20050;-69
2021/06/07 06:02:04;;;;;;;30.70;21.20;;;17.50;92.50;;;;;;5010711;28;20413;-69
2021/06/07 06:04:29;;;;;;;33.30;22.45;;;17.50;92.60;;;;;;5010920;28;20445;-69
2021/06/07 06:06:55;;;;;;;33.60;21.90;;;17.50;92.50;;;;;;4999201;28;20038;-69
2021/06/07 06:09:20;;;;;;;35.42;22.15;;;17.50;92.50;;;;;;5003368;28;20514;-70
2021/06/07 06:11:46;;;;;;;35.63;21.80;;;17.50;92.50;;;;;;5010759;28;20486;-69
2021/06/07 06:14:11;;;;;;;34.55;21.70;;;17.50;92.60;;;;;;5010033;28;20410;-71
2021/06/07 06:16:37;;;;;;;32.33;22.05;;;17.50;92.60;;;;;;5008927;28;20087;-69
2021/06/07 06:19:03;;;;;;;33.42;22.52;;;17.50;92.60;;;;;;5009299;28;20126;-69
2021/06/07 06:21:29;;;;;;;35.50;23.25;;;17.50;92.60;;;;;;5010393;28;20393;-70
2021/06/07 06:23:56;;;;;;;37.97;23.15;;;17.50;92.60;;;;;;5004311;28;20471;-70
2021/06/07 06:26:22;;;;;;;39.25;22.92;;;17.50;92.60;;;;;;5000649;28;20026;-69
2021/06/07 06:28:49;;;;;;;34.58;22.83;;;17.60;92.60;;;;;;5008658;28;20030;-71
2021/06/07 06:31:15;;;;;;;34.83;22.67;;;17.60;92.60;;;;;;5006920;28;20165;-69
2021/06/07 06:33:41;;;;;;;31.70;21.33;;;17.60;92.60;;;;;;5008265;28;20118;-69
2021/06/07 06:36:07;;;;;;;33.80;22.73;;;17.60;92.60;;;;;;5008327;28;20030;-69
2021/06/07 06:38:33;;;;;;;36.70;22.20;;;17.60;92.60;;;;;;5011223;28;20149;-69
2021/06/07 06:40:58;;;;;;;37.50;24.77;;;17.60;92.60;;;;;;5014158;28;20398;-69
2021/06/07 06:43:24;;;;;;;36.83;23.75;;;17.70;92.60;;;;;;5014327;28;20478;-69
2021/06/07 06:45:50;;;;;;;39.80;24.50;;;17.70;92.60;;;;;;5012907;28;20026;-69
2021/06/07 06:48:16;;;;;;;40.83;25.15;;;17.70;92.80;;;;;;5013605;28;20040;-69
2021/06/07 06:50:42;;;;;;;37.97;24.13;;;17.80;92.50;;;;;;5013713;28;20026;-69
2021/06/07 06:53:11;;;;;;;36.65;25.70;;;17.80;92.50;;;;;;5013592;28;20022;-69
2021/06/07 06:55:37;;;;;;;38.13;25.33;;;17.80;92.50;;;;;;5011376;28;20064;-69
2021/06/07 06:58:04;;;;;;;33.30;23.33;;;17.80;92.50;;;;;;5013260;28;20037;-68
2021/06/07 07:00:35;;;;;;;36.65;24.23;;;17.80;92.50;;;;;;5012548;28;20423;-69
2021/06/07 07:03:01;;;;;;;33.40;22.93;;;17.90;92.50;;;;;;4993797;28;20069;-69
2021/06/07 07:05:27;;;;;;;37.40;23.48;;;18.00;92.50;;;;;;5007004;28;20312;-69
2021/06/07 07:07:53;;;;;;;34.05;22.65;;;18.00;92.40;;;;;;5019420;28;20041;-69
2021/06/07 07:10:18;;;;;;;33.58;22.50;;;18.10;92.40;;;;;;5034108;28;20466;-69
2021/06/07 07:12:44;;;;;;;33.00;21.15;;;18.20;92.50;;;;;;5010163;28;20058;-69
2021/06/07 07:15:10;;;;;;;31.92;20.38;;;18.20;92.40;;;;;;5011198;28;20088;-69
2021/06/07 07:17:35;;;;;;;33.45;22.08;;;18.30;92.40;;;;;;5012699;28;20030;-69
2021/06/07 07:20:01;;;;;;;31.25;21.23;;;18.30;92.40;;;;;;5011780;28;20109;-69
2021/06/07 07:22:26;;;;;;;33.53;21.80;;;18.30;92.40;;;;;;5010301;28;20457;-69
2021/06/07 07:24:52;;;;;;;33.95;21.20;;;18.30;92.30;;;;;;5009222;28;20030;-69
2021/06/07 07:27:19;;;;;;;36.42;22.73;;;18.40;92.30;;;;;;5003742;28;20104;-69
2021/06/07 07:29:46;;;;;;;29.52;19.80;;;18.40;92.30;;;;;;5013752;28;20088;-69
2021/06/07 07:32:12;;;;;;;29.52;20.63;;;18.40;92.20;;;;;;5012321;28;20429;-68
2021/06/07 07:34:40;;;;;;;30.33;20.55;;;18.40;92.30;;;;;;5010801;28;20034;-68
2021/06/07 07:37:06;;;;;;;31.88;20.42;;;18.50;92.20;;;;;;5003972;28;20030;-69
2021/06/07 07:39:31;;;;;;;34.45;22.60;;;18.60;92.30;;;;;;5013477;28;20034;-69
2021/06/07 07:41:59;;;;;;;30.58;20.95;;;18.70;92.20;;;;;;5012246;28;20026;-69
2021/06/07 07:44:25;;;;;;;34.67;21.33;;;18.70;92.20;;;;;;5013044;28;20070;-69
2021/06/07 07:46:52;;;;;;;29.80;20.25;;;18.80;92.20;;;;;;5005553;28;20085;-69
2021/06/07 07:49:19;;;;;;;32.47;21.98;;;18.90;92.10;;;;;;5007633;28;20036;-69
2021/06/07 07:51:45;;;;;;;32.78;21.17;;;18.90;92.10;;;;;;5009034;28;20046;-69
2021/06/07 07:54:10;;;;;;;32.75;21.63;;;19.00;92.00;;;;;;5007358;28;21025;-69
2021/06/07 07:56:37;;;;;;;29.35;20.73;;;19.00;92.00;;;;;;5014143;28;20029;-69
2021/06/07 07:59:03;;;;;;;30.20;21.40;;;18.90;91.90;;;;;;5005172;28;20030;-69
2021/06/07 08:01:29;;;;;;;32.17;21.42;;;18.90;91.80;;;;;;5014381;28;20105;-69
2021/06/07 08:03:55;;;;;;;35.30;26.45;;;19.00;91.80;;;;;;5010758;28;20116;-69
2021/06/07 08:06:20;;;;;;;30.30;20.92;;;19.00;91.80;;;;;;5012470;28;20030;-69
2021/06/07 08:08:46;;;;;;;37.60;23.77;;;19.00;91.80;;;;;;5012014;28;20044;-69
2021/06/07 08:11:12;;;;;;;33.63;22.73;;;19.10;91.70;;;;;;5010520;28;20431;-69
2021/06/07 08:13:39;;;;;;;30.00;20.25;;;19.20;91.70;;;;;;5011646;28;20183;-69
2021/06/07 08:16:05;;;;;;;35.50;22.48;;;19.40;91.60;;;;;;5010479;28;20108;-68
2021/06/07 08:18:31;;;;;;;33.85;22.38;;;19.50;91.50;;;;;;5011118;28;20026;-69
2021/06/07 08:20:56;;;;;;;32.58;22.23;;;19.60;91.40;;;;;;5007807;28;20026;-69
2021/06/07 08:23:22;;;;;;;28.48;21.40;;;19.60;91.20;;;;;;5011165;28;20093;-68
2021/06/07 08:25:48;;;;;;;30.67;22.35;;;19.70;91.20;;;;;;5009145;28;20100;-69
2021/06/07 08:28:13;;;;;;;28.73;21.33;;;19.80;91.10;;;;;;5011443;28;20060;-69
2021/06/07 08:30:39;;;;;;;29.08;21.23;;;20.00;91.00;;;;;;5011729;28;20030;-69
2021/06/07 08:33:05;;;;;;;28.95;21.27;;;20.10;90.80;;;;;;5011488;28;20026;-68
2021/06/07 08:35:31;;;;;;;32.00;22.77;;;20.10;90.90;;;;;;5001368;28;20117;-69
2021/06/07 08:37:57;;;;;;;33.55;21.45;;;20.10;90.90;;;;;;5007788;28;20116;-69
2021/06/07 08:40:23;;;;;;;44.17;33.38;;;20.20;90.80;;;;;;5010953;28;20106;-69
2021/06/07 08:42:48;;;;;;;26.50;20.42;;;20.40;90.70;;;;;;5012004;28;20018;-69
2021/06/07 08:45:20;;;;;;;30.33;19.80;;;20.90;90.40;;;;;;5009736;28;20025;-68
2021/06/07 08:47:48;;;;;;;26.55;20.15;;;21.40;90.00;;;;;;5008671;28;20366;-69
2021/06/07 08:50:17;;;;;;;24.95;18.55;;;21.60;90.00;;;;;;5005589;28;20038;-70
2021/06/07 08:52:43;;;;;;;24.55;17.63;;;22.20;88.80;;;;;;5001144;28;20038;-69
2021/06/07 08:55:12;;;;;;;22.48;18.20;;;22.60;87.70;;;;;;5002474;28;20026;-68
2021/06/07 08:57:43;;;;;;;23.70;19.05;;;23.00;86.10;;;;;;5010684;28;20486;-70
2021/06/07 09:00:11;;;;;;;26.98;18.95;;;23.10;86.10;;;;;;5010663;28;20635;-70
2021/06/07 09:02:39;;;;;;;23.35;17.95;;;23.00;85.60;;;;;;5010149;28;20096;-70
2021/06/07 09:05:05;;;;;;;22.98;18.20;;;23.10;85.40;;;;;;5009066;28;20046;-68
2021/06/07 09:07:32;;;;;;;24.25;17.70;;;23.20;85.00;;;;;;5010792;28;20498;-69
2021/06/07 09:10:12;;;;;;;23.88;18.40;;;23.20;85.10;;;;;;5026828;28;20026;-71
2021/06/07 09:12:42;;;;;;;25.80;17.85;;;23.10;84.80;;;;;;5027787;28;20079;-69
2021/06/07 09:15:13;;;;;;;23.67;19.00;;;23.10;84.80;;;;;;5010700;28;20079;-69
2021/06/07 09:17:45;;;;;;;21.55;17.08;;;23.10;85.20;;;;;;5009337;28;20030;-69
2021/06/07 09:20:17;;;;;;;23.23;17.60;;;22.90;85.10;;;;;;5009945;28;20028;-70
2021/06/07 09:22:54;;;;;;;25.38;19.00;;;22.80;85.50;;;;;;5010068;28;20018;-69
2021/06/07 09:25:29;;;;;;;28.55;19.15;;;22.70;85.00;;;;;;5006443;28;20033;-69
2021/06/07 09:28:15;;;;;;;24.45;17.60;;;22.60;85.30;;;;;;5008403;28;20064;-70
2021/06/07 09:30:59;;;;;;;23.35;17.88;;;22.50;84.70;;;;;;5010915;28;20033;-70
2021/06/07 09:33:36;;;;;;;22.73;17.40;;;22.50;85.10;;;;;;5011189;28;20026;-70
2021/06/07 09:36:14;;;;;;;28.10;22.42;;;22.70;85.20;;;;;;5003949;28;20026;-69
2021/06/07 09:39:09;;;;;;;22.17;16.73;;;22.90;84.20;;;;;;4996351;28;20033;-71
2021/06/07 09:41:52;;;;;;;21.77;16.73;;;23.10;83.60;;;;;;4990737;28;20590;-70
2021/06/07 09:44:23;;;;;;;23.30;15.77;;;23.30;83.30;;;;;;4999649;28;20105;-71
2021/06/07 09:46:50;;;;;;;19.85;16.33;;;23.80;83.00;;;;;;5009027;28;20022;-69
2021/06/07 09:49:21;;;;;;;22.15;16.25;;;24.00;82.70;;;;;;5002423;28;20775;-71
2021/06/07 09:51:58;;;;;;;19.03;14.30;;;24.20;81.90;;;;;;4992098;28;20590;-70
2021/06/07 09:54:26;;;;;;;19.27;14.77;;;24.50;81.20;;;;;;5111219;22;20040;-69
2021/06/07 09:56:56;;;;;;;17.60;14.60;;;24.40;81.80;;;;;;5066591;28;20060;-69
2021/06/07 09:59:34;;;;;;;19.23;15.10;;;24.40;81.30;;;;;;5064136;28;20376;-69
2021/06/07 10:02:02;;;;;;;17.75;14.88;;;24.60;80.40;;;;;;5066474;28;20052;-69
2021/06/07 10:04:58;;;;;;;17.83;15.80;;;24.40;80.70;;;;;;5055897;28;20021;-68
2021/06/07 10:07:24;;;;;;;22.48;16.90;;;24.10;80.40;;;;;;5052401;28;20491;-68
2021/06/07 10:10:10;;;;;;;20.63;16.75;;;23.70;80.90;;;;;;5048480;28;20445;-69
2021/06/07 10:12:39;;;;;;;22.05;16.73;;;23.40;80.60;;;;;;5029520;28;20025;-68
2021/06/07 10:15:05;;;;;;;23.63;18.02;;;23.10;81.20;;;;;;5045307;28;20031;-68
2021/06/07 10:17:31;;;;;;;24.27;17.08;;;22.80;81.30;;;;;;5046364;28;20032;-68
2021/06/07 10:22:35;;;;;;;25.52;17.80;;;22.30;82.20;;;;;;5040099;28;20445;-67
2021/06/07 10:25:01;;;;;;;24.90;19.58;;;22.10;82.80;;;;;;5047860;28;20029;-68
2021/06/07 10:27:27;;;;;;;31.23;19.92;;;22.00;83.10;;;;;;5048941;28;20041;-68
2021/06/07 10:29:53;;;;;;;27.35;19.30;;;21.80;83.50;;;;;;5050505;28;20059;-68
2021/06/07 10:32:25;;;;;;;26.38;19.95;;;21.60;83.90;;;;;;5049847;28;20029;-68
2021/06/07 10:34:50;;;;;;;;;;;21.60;84.20;;;;;;5049214;28;20033;-68
2021/06/07 10:37:16;;;;;;;29.88;20.67;;;21.50;84.30;;;;;;5047908;28;19917;-68
2021/06/07 10:39:42;;;;;;;29.67;20.75;;;21.30;84.70;;;;;;5047004;28;20024;-67
2021/06/07 10:42:08;;;;;;;28.15;20.95;;;21.20;84.70;;;;;;5049500;28;20473;-68
2021/06/07 10:44:49;;;;;;;28.42;20.25;;;21.10;84.90;;;;;;5030337;28;20025;-69
2021/06/07 10:47:18;;;;;;;28.85;20.58;;;21.00;85.00;;;;;;5048838;28;20024;-70
2021/06/07 10:49:56;;;;;;;28.70;20.95;;;21.00;85.60;;;;;;5031410;28;20029;-69
2021/06/07 10:52:25;;;;;;;28.65;20.25;;;21.00;85.60;;;;;;5049201;28;20040;-69
2021/06/07 10:55:08;;;;;;;26.25;20.33;;;21.00;86.00;;;;;;5045257;28;20048;-69
2021/06/07 10:57:35;;;;;;;25.17;19.73;;;21.10;85.80;;;;;;5046661;28;20024;-68
2021/06/07 11:00:04;;;;;;;100.38;71.32;;;21.10;86.10;;;;;;5048750;28;20477;-68
2021/06/07 11:02:35;;;;;;;33.33;24.10;;;21.10;86.20;;;;;;5049643;28;20021;-69
2021/06/07 11:05:12;;;;;;;30.10;21.33;;;21.10;86.20;;;;;;5048682;28;20071;-70
2021/06/07 11:07:40;;;;;;;27.30;20.25;;;21.10;86.00;;;;;;5049622;28;20021;-69
2021/06/07 11:10:23;;;;;;;32.53;21.65;;;21.10;86.00;;;;;;5031273;28;20029;-68
2021/06/07 11:12:58;;;;;;;30.10;20.58;;;21.10;85.90;;;;;;5044997;28;20031;-69
2021/06/07 11:15:33;;;;;;;28.60;20.25;;;21.20;86.00;;;;;;5047776;28;20485;-68
2021/06/07 11:18:19;;;;;;;28.55;20.73;;;21.20;86.00;;;;;;5046525;28;20200;-69
2021/06/07 11:20:45;;;;;;;27.92;19.95;;;21.20;85.60;;;;;;5047850;28;20021;-68
2021/06/07 11:23:16;;;;;;;32.72;20.88;;;21.20;86.00;;;;;;5046934;28;20055;-69
2021/06/07 11:25:52;;;;;;;29.88;20.35;;;21.20;85.90;;;;;;5051467;28;20028;-69
2021/06/07 11:28:41;;;;;;;25.95;19.02;;;21.20;86.40;;;;;;5050867;28;20060;-69
2021/06/07 11:31:32;;;;;;;37.08;21.45;;;21.20;86.00;;;;;;5039309;28;20441;-68
2021/06/07 11:33:59;;;;;;;30.00;20.95;;;21.20;86.20;;;;;;5049913;28;20029;-68
2021/06/07 11:36:38;;;;;;;24.58;19.88;;;21.20;86.30;;;;;;5052994;28;20373;-68
2021/06/07 11:39:09;;;;;;;27.85;20.50;;;21.20;86.10;;;;;;5052905;28;20389;-68
2021/06/07 11:41:42;;;;;;;28.27;21.50;;;21.30;86.30;;;;;;5036035;28;20044;-68
2021/06/07 11:44:08;;;;;;;26.15;20.27;;;21.30;86.20;;;;;;5051666;28;20036;-69
2021/06/07 11:46:34;;;;;;;30.27;20.98;;;21.30;86.40;;;;;;5052393;28;20032;-68
2021/06/07 11:49:12;;;;;;;29.83;21.52;;;21.40;86.60;;;;;;5053015;28;20396;-68
2021/06/07 11:51:38;;;;;;;27.08;19.77;;;21.50;86.40;;;;;;5053339;28;20074;-68
2021/06/07 11:54:27;;;;;;;26.52;21.00;;;21.70;86.50;;;;;;5051618;28;20033;-69
2021/06/07 11:57:00;;;;;;;28.13;21.05;;;21.80;86.30;;;;;;5053335;28;20044;-68
2021/06/07 11:59:29;;;;;;;26.65;21.27;;;22.00;86.30;;;;;;5034537;28;20036;-67
2021/06/07 12:01:55;;;;;;;28.63;20.33;;;22.10;86.10;;;;;;5052560;28;20040;-68
2021/06/07 12:04:29;;;;;;;29.35;21.25;;;22.20;86.00;;;;;;5050981;28;20481;-70
2021/06/07 12:06:59;;;;;;;24.20;19.92;;;22.30;85.30;;;;;;5052545;28;20029;-71
2021/06/07 12:09:26;;;;;;;24.23;20.15;;;22.40;85.40;;;;;;5034654;28;20162;-70
2021/06/07 12:11:52;;;;;;;23.95;19.20;;;22.50;85.60;;;;;;5051414;28;20331;-69
2021/06/07 12:14:28;;;;;;;26.15;19.30;;;22.60;85.50;;;;;;5051650;28;20028;-69
2021/06/07 12:17:02;;;;;;;25.85;19.38;;;22.60;85.10;;;;;;5051387;28;20087;-70
2021/06/07 12:19:40;;;;;;;23.95;19.05;;;22.60;85.10;;;;;;5052364;28;20051;-70
2021/06/07 12:22:23;;;;;;;26.77;19.10;;;22.70;84.90;;;;;;5052188;28;20020;-70
2021/06/07 12:30:38;;;;;;;21.80;17.58;;;23.10;85.10;;;;;;5049786;28;19916;-70
2021/06/07 12:33:05;;;;;;;23.33;18.08;;;23.20;84.70;;;;;;5050201;28;20033;-69
2021/06/07 12:35:33;;;;;;;27.98;18.33;;;23.20;84.10;;;;;;5049775;28;20032;-70
2021/06/07 12:38:01;;;;;;;25.63;17.55;;;23.20;83.60;;;;;;5049169;28;20057;-69
2021/06/07 12:40:38;;;;;;;21.48;17.42;;;23.20;83.50;;;;;;5052046;28;20121;-69
2021/06/07 12:43:06;;;;;;;21.73;17.90;;;23.20;83.00;;;;;;5033643;28;20024;-69
2021/06/07 12:45:39;;;;;;;22.05;17.27;;;23.20;83.30;;;;;;5050391;28;20020;-70